createdAt,value
2019-05-18T00:01:06.795Z,9.60
2019-05-18T00:03:37.135Z,9.60
2019-05-18T00:06:07.698Z,9.60
2019-05-18T00:08:48.579Z,9.50
2019-05-18T00:11:21.895Z,9.50
2019-05-18T00:13:52.428Z,9.50
2019-05-18T00:16:28.488Z,9.40
2019-05-18T00:19:08.306Z,9.30
2019-05-18T00:21:39.099Z,9.20
2019-05-18T00:24:09.799Z,9.20
2019-05-18T00:26:40.167Z,9.20
2019-05-18T00:29:11.015Z,9.20
2019-05-18T00:31:41.264Z,9.20
2019-05-18T00:34:12.949Z,9.20
2019-05-18T00:36:43.251Z,9.20
2019-05-18T00:39:13.568Z,9.10
2019-05-18T00:41:45.654Z,9.00
2019-05-18T00:44:16.175Z,8.90
2019-05-18T00:46:46.478Z,8.90
2019-05-18T00:49:16.774Z,8.90
2019-05-18T00:51:47.320Z,8.80
2019-05-18T00:54:20.609Z,8.70
2019-05-18T00:56:50.815Z,8.70
2019-05-18T00:59:21.829Z,8.50
2019-05-18T01:01:52.283Z,8.40
2019-05-18T01:04:24.418Z,8.50
2019-05-18T01:06:58.822Z,8.50
2019-05-18T01:09:29.860Z,8.50
2019-05-18T01:12:00.673Z,8.50
2019-05-18T01:14:31.348Z,8.50
2019-05-18T01:17:01.552Z,8.50
2019-05-18T01:19:31.899Z,8.40
2019-05-18T01:22:02.447Z,8.40
2019-05-18T01:24:33.079Z,8.40
2019-05-18T01:27:03.763Z,8.40
2019-05-18T01:29:35.123Z,8.40
2019-05-18T01:32:05.616Z,8.30
2019-05-18T01:34:36.473Z,8.30
2019-05-18T01:37:07.101Z,8.30
2019-05-18T01:39:37.237Z,8.20
2019-05-18T01:42:07.588Z,8.20
2019-05-18T01:44:38.073Z,8.20
2019-05-18T01:47:08.522Z,8.10
2019-05-18T01:49:38.871Z,8.10
2019-05-18T01:52:09.938Z,8.10
2019-05-18T01:54:40.169Z,8.00
2019-05-18T01:57:10.293Z,8.00
2019-05-18T01:59:41.737Z,8.00
2019-05-18T02:02:12.174Z,7.90
2019-05-18T02:04:42.864Z,7.90
2019-05-18T02:07:13.829Z,7.80
2019-05-18T02:09:44.177Z,7.80
2019-05-18T02:12:14.257Z,7.70
2019-05-18T02:14:44.565Z,7.70
2019-05-18T02:17:16.380Z,7.60
2019-05-18T02:19:47.129Z,7.60
2019-05-18T02:22:17.442Z,7.70
2019-05-18T02:24:48.017Z,7.70
2019-05-18T02:27:18.247Z,7.70
2019-05-18T02:29:48.968Z,7.70
2019-05-18T02:32:19.239Z,7.70
2019-05-18T02:34:49.882Z,7.70
2019-05-18T02:37:20.208Z,7.70
2019-05-18T02:39:52.703Z,7.70
2019-05-18T02:42:22.943Z,7.60
2019-05-18T02:44:57.226Z,7.60
2019-05-18T02:47:30.827Z,7.50
2019-05-18T02:50:04.905Z,7.40
2019-05-18T02:52:37.489Z,7.30
2019-05-18T02:55:08.197Z,7.40
2019-05-18T02:57:49.540Z,7.40
2019-05-18T03:00:20.484Z,7.40
2019-05-18T03:02:50.641Z,7.40
2019-05-18T03:05:20.885Z,7.40
2019-05-18T03:07:51.459Z,7.30
2019-05-18T03:10:22.290Z,7.30
2019-05-18T03:12:53.230Z,7.20
2019-05-18T03:15:24.384Z,7.10
2019-05-18T03:17:54.519Z,7.10
2019-05-18T03:20:25.129Z,7.10
2019-05-18T03:22:55.573Z,7.10
2019-05-18T03:25:25.950Z,7.10
2019-05-18T03:27:56.688Z,7.10
2019-05-18T03:30:27.249Z,7.10
2019-05-18T03:32:57.443Z,7.20
2019-05-18T03:35:30.991Z,7.20
2019-05-18T03:38:03.128Z,7.30
2019-05-18T03:40:33.702Z,7.20
2019-05-18T03:43:04.002Z,7.20
2019-05-18T03:45:34.535Z,7.10
2019-05-18T03:48:04.800Z,7.10
2019-05-18T03:50:36.684Z,7.10
2019-05-18T03:53:06.878Z,7.20
2019-05-18T03:55:37.063Z,7.20
2019-05-18T03:58:07.271Z,7.20
2019-05-18T04:00:38.114Z,7.20
2019-05-18T04:03:20.233Z,7.20
2019-05-18T04:05:40.259Z,7.20
2019-05-18T04:08:11.091Z,7.30
2019-05-18T04:10:41.453Z,7.40
2019-05-18T04:13:11.766Z,7.40
2019-05-18T04:15:41.804Z,7.40
2019-05-18T04:18:12.118Z,7.50
2019-05-18T04:20:43.455Z,7.60
2019-05-18T04:23:14.344Z,7.70
2019-05-18T04:25:44.828Z,7.80
2019-05-18T04:28:15.444Z,7.80
2019-05-18T04:30:45.892Z,8.00
2019-05-18T04:33:17.019Z,8.10
2019-05-18T04:35:47.354Z,8.20
2019-05-18T04:38:17.660Z,8.30
2019-05-18T04:40:53.687Z,8.30
2019-05-18T04:43:24.726Z,8.50
2019-05-18T04:45:55.754Z,8.60
2019-05-18T04:48:26.908Z,8.70
2019-05-18T04:50:59.177Z,8.70
2019-05-18T04:53:29.846Z,8.80
2019-05-18T04:56:03.430Z,8.90
2019-05-18T04:58:33.986Z,9.10
2019-05-18T05:01:04.528Z,9.30
2019-05-18T05:03:34.695Z,9.40
2019-05-18T05:06:05.434Z,9.60
2019-05-18T05:08:35.653Z,9.80
2019-05-18T05:11:12.750Z,10.00
2019-05-18T05:13:43.089Z,10.30
2019-05-18T05:16:25.906Z,10.40
2019-05-18T05:18:56.233Z,10.50
2019-05-18T05:21:26.515Z,10.60
2019-05-18T05:23:56.950Z,10.60
2019-05-18T05:26:27.535Z,10.50
2019-05-18T05:29:04.494Z,10.50
2019-05-18T05:31:35.229Z,10.50
2019-05-18T05:34:06.425Z,10.50
2019-05-18T05:36:37.313Z,10.60
2019-05-18T05:39:11.403Z,10.70
2019-05-18T05:41:41.792Z,10.70
2019-05-18T05:44:12.900Z,10.70
2019-05-18T05:46:43.128Z,10.90
2019-05-18T05:49:13.501Z,11.10
2019-05-18T05:51:44.470Z,11.30
2019-05-18T05:54:15.534Z,11.50
2019-05-18T05:56:48.959Z,11.60
2019-05-18T05:59:19.099Z,11.70
2019-05-18T06:01:51.344Z,11.80
2019-05-18T06:04:21.689Z,12.00
2019-05-18T06:07:00.228Z,12.10
2019-05-18T06:09:30.528Z,12.20
2019-05-18T06:12:00.590Z,12.30
2019-05-18T06:14:31.254Z,12.60
2019-05-18T06:17:01.714Z,12.70
2019-05-18T06:19:31.969Z,12.90
2019-05-18T06:22:02.326Z,13.00
2019-05-18T06:24:33.401Z,13.20
2019-05-18T06:27:03.540Z,13.40
2019-05-18T06:29:34.561Z,13.60
2019-05-18T06:32:05.966Z,13.80
2019-05-18T06:34:37.703Z,14.00
2019-05-18T06:37:08.704Z,14.20
2019-05-18T06:39:39.338Z,14.40
2019-05-18T06:42:13.175Z,14.50
2019-05-18T06:44:43.389Z,14.70
2019-05-18T06:47:14.029Z,14.80
2019-05-18T06:49:47.620Z,15.20
2019-05-18T06:52:19.035Z,15.50
2019-05-18T06:54:49.999Z,15.80
2019-05-18T06:57:36.113Z,15.90
2019-05-18T07:00:07.060Z,16.10
2019-05-18T07:02:37.441Z,16.30
2019-05-18T07:05:09.725Z,16.60
2019-05-18T07:07:40.147Z,16.70
2019-05-18T07:10:10.347Z,16.80
2019-05-18T07:12:41.090Z,16.80
2019-05-18T07:15:11.920Z,16.80
2019-05-18T07:17:42.939Z,16.80
2019-05-18T07:20:13.496Z,16.80
2019-05-18T07:22:43.753Z,16.70
2019-05-18T07:25:14.371Z,16.60
2019-05-18T07:27:44.920Z,16.50
2019-05-18T07:30:19.172Z,16.50
2019-05-18T07:32:49.711Z,16.40
2019-05-18T07:35:20.135Z,16.40
2019-05-18T07:37:51.572Z,16.50
2019-05-18T07:40:22.298Z,16.50
2019-05-18T07:42:52.621Z,16.50
2019-05-18T07:45:22.966Z,16.60
2019-05-18T07:47:53.679Z,16.80
2019-05-18T07:50:24.218Z,16.90
2019-05-18T07:52:54.959Z,17.00
2019-05-18T07:55:28.616Z,17.10
2019-05-18T07:57:59.264Z,17.10
2019-05-18T08:00:29.724Z,17.20
2019-05-18T08:03:08.596Z,17.20
2019-05-18T08:05:42.118Z,17.40
2019-05-18T08:08:16.010Z,17.50
2019-05-18T08:10:46.971Z,17.60
2019-05-18T08:13:17.528Z,17.80
2019-05-18T08:15:54.765Z,18.00
2019-05-18T08:18:25.346Z,18.20
2019-05-18T08:20:56.110Z,18.40
2019-05-18T08:23:30.527Z,18.70
2019-05-18T08:26:01.065Z,18.80
2019-05-18T08:28:38.570Z,19.00
2019-05-18T08:31:10.414Z,19.10
2019-05-18T08:33:41.577Z,19.10
2019-05-18T08:36:12.149Z,19.20
2019-05-18T08:38:42.984Z,19.20
2019-05-18T08:41:14.432Z,19.40
2019-05-18T08:43:49.795Z,19.60
2019-05-18T08:46:20.580Z,19.60
2019-05-18T08:48:51.487Z,19.50
2019-05-18T08:51:22.017Z,19.60
2019-05-18T08:53:53.880Z,19.90
2019-05-18T08:56:30.922Z,20.00
2019-05-18T08:59:01.525Z,19.90
2019-05-18T09:01:36.994Z,20.10
2019-05-18T09:04:10.904Z,20.40
2019-05-18T09:06:42.795Z,20.40
2019-05-18T09:09:13.383Z,20.40
2019-05-18T09:11:45.397Z,20.40
2019-05-18T09:14:15.875Z,20.40
2019-05-18T09:16:50.626Z,20.40
2019-05-18T09:19:21.497Z,20.60
2019-05-18T09:21:54.398Z,20.80
2019-05-18T09:24:26.398Z,20.90
2019-05-18T09:27:09.312Z,20.80
2019-05-18T09:29:40.690Z,20.60
2019-05-18T09:32:19.173Z,20.60
2019-05-18T09:34:58.079Z,20.60
2019-05-18T09:37:34.928Z,20.60
2019-05-18T09:40:06.343Z,20.60
2019-05-18T09:42:40.699Z,20.60
2019-05-18T09:45:11.515Z,20.60
2019-05-18T09:47:46.822Z,20.60
2019-05-18T09:50:20.232Z,20.60
2019-05-18T09:52:50.054Z,20.50
2019-05-18T09:55:21.296Z,20.60
2019-05-18T09:57:54.034Z,20.60
2019-05-18T10:00:28.198Z,20.60
2019-05-18T10:03:00.529Z,20.60
2019-05-18T10:05:31.627Z,20.50
2019-05-18T10:08:02.542Z,20.50
2019-05-18T10:10:35.188Z,20.50
2019-05-18T10:13:08.220Z,20.50
2019-05-18T10:15:39.418Z,20.40
2019-05-18T10:18:09.944Z,20.40
2019-05-18T10:20:46.720Z,20.40
2019-05-18T10:23:16.903Z,20.50
2019-05-18T10:25:50.272Z,20.60
2019-05-18T10:28:23.462Z,20.60
2019-05-18T10:30:54.031Z,20.80
2019-05-18T10:33:27.677Z,20.80
2019-05-18T10:36:02.067Z,20.90
2019-05-18T10:38:33.485Z,21.00
2019-05-18T10:41:04.595Z,21.00
2019-05-18T10:43:38.015Z,21.10
2019-05-18T10:46:26.845Z,21.20
2019-05-18T10:49:03.923Z,21.30
2019-05-18T10:51:35.183Z,21.30
2019-05-18T10:54:10.993Z,21.30
2019-05-18T10:56:43.359Z,21.40
2019-05-18T10:59:14.475Z,21.40
2019-05-18T11:01:45.430Z,21.50
2019-05-18T11:04:19.022Z,21.50
2019-05-18T11:06:51.835Z,21.40
2019-05-18T11:09:25.992Z,21.40
2019-05-18T11:12:02.076Z,21.50
2019-05-18T11:14:32.953Z,21.50
2019-05-18T11:17:04.241Z,21.60
2019-05-18T11:19:34.562Z,21.60
2019-05-18T11:22:10.229Z,21.70
2019-05-18T11:24:40.566Z,21.70
2019-05-18T11:27:11.059Z,21.60
2019-05-18T11:29:46.314Z,21.80
2019-05-18T11:32:16.736Z,21.90
2019-05-18T11:34:50.941Z,21.90
2019-05-18T11:37:24.696Z,21.90
2019-05-18T11:39:56.721Z,22.00
2019-05-18T11:42:27.197Z,22.10
2019-05-18T11:44:58.088Z,22.10
2019-05-18T11:47:31.967Z,22.10
2019-05-18T11:50:02.652Z,22.10
2019-05-18T11:52:33.748Z,22.30
2019-05-18T11:55:05.344Z,22.50
2019-05-18T11:57:36.007Z,22.60
2019-05-18T12:00:10.046Z,22.80
2019-05-18T12:02:46.494Z,22.90
2019-05-18T12:05:20.378Z,23.10
2019-05-18T12:07:52.324Z,23.30
2019-05-18T12:10:26.024Z,23.40
2019-05-18T12:12:56.355Z,23.50
2019-05-18T12:15:27.130Z,23.50
2019-05-18T12:18:01.279Z,23.40
2019-05-18T12:20:35.088Z,23.40
2019-05-18T12:23:08.157Z,23.30
2019-05-18T12:25:38.325Z,23.20
2019-05-18T12:28:11.157Z,23.20
2019-05-18T12:30:41.973Z,23.30
2019-05-18T12:33:48.485Z,23.10
2019-05-18T12:36:21.851Z,22.90
2019-05-18T12:38:55.589Z,22.60
2019-05-18T12:41:35.378Z,22.60
2019-05-18T12:44:07.491Z,22.60
2019-05-18T12:46:38.129Z,22.70
2019-05-18T12:49:08.322Z,22.70
2019-05-18T12:51:44.670Z,22.80
2019-05-18T12:54:28.778Z,22.80
2019-05-18T12:56:52.421Z,22.90
2019-05-18T12:59:22.914Z,22.90
2019-05-18T13:01:53.556Z,23.00
2019-05-18T13:04:33.471Z,23.10
2019-05-18T13:07:04.013Z,23.10
2019-05-18T13:09:37.440Z,23.20
2019-05-18T13:12:11.575Z,23.40
2019-05-18T13:14:41.034Z,23.50
2019-05-18T13:17:13.027Z,23.50
2019-05-18T13:19:48.743Z,23.50
2019-05-18T13:22:18.966Z,23.40
2019-05-18T13:24:53.477Z,23.30
2019-05-18T13:27:38.350Z,23.30
2019-05-18T13:30:00.863Z,23.30
2019-05-18T13:32:36.489Z,23.30
2019-05-18T13:35:16.353Z,23.50
2019-05-18T13:37:48.498Z,23.70
2019-05-18T13:40:21.783Z,23.80
2019-05-18T13:43:05.446Z,24.00
2019-05-18T13:45:36.857Z,24.10
2019-05-18T13:48:11.515Z,24.30
2019-05-18T13:50:44.785Z,24.30
2019-05-18T13:53:18.891Z,24.40
2019-05-18T13:55:50.231Z,24.30
2019-05-18T13:58:21.266Z,24.20
2019-05-18T14:00:52.736Z,24.20
2019-05-18T14:03:26.115Z,24.20
2019-05-18T14:05:56.683Z,24.30
2019-05-18T14:08:30.958Z,24.30
2019-05-18T14:11:09.319Z,24.40
2019-05-18T14:13:39.751Z,24.30
2019-05-18T14:16:14.516Z,24.10
2019-05-18T14:18:46.527Z,24.10
2019-05-18T14:21:19.087Z,24.10
2019-05-18T14:23:50.180Z,24.10
2019-05-18T14:26:21.560Z,24.00
2019-05-18T14:28:56.980Z,24.10
2019-05-18T14:31:29.434Z,24.10
2019-05-18T14:34:00.674Z,24.10
2019-05-18T14:36:31.467Z,24.00
2019-05-18T14:39:03.371Z,23.90
2019-05-18T14:41:36.372Z,23.90
2019-05-18T14:44:17.768Z,23.90
2019-05-18T14:46:52.841Z,23.90
2019-05-18T14:49:26.198Z,24.00
2019-05-18T14:51:58.446Z,24.00
2019-05-18T14:54:37.887Z,24.00
2019-05-18T14:57:19.696Z,23.90
2019-05-18T15:00:11.570Z,23.90
2019-05-18T15:02:52.046Z,23.90
2019-05-18T15:05:28.144Z,23.70
2019-05-18T15:07:59.750Z,23.60
2019-05-18T15:10:31.976Z,23.50
2019-05-18T15:13:14.683Z,23.40
2019-05-18T15:15:53.406Z,23.40
2019-05-18T15:18:24.555Z,23.30
2019-05-18T15:20:59.785Z,23.00
2019-05-18T15:23:33.725Z,22.80
2019-05-18T15:26:12.259Z,22.70
2019-05-18T15:28:43.480Z,22.70
2019-05-18T15:31:14.854Z,22.70
2019-05-18T15:33:49.600Z,22.70
2019-05-18T15:36:20.703Z,22.60
2019-05-18T15:38:53.786Z,22.50
2019-05-18T15:41:35.018Z,22.50
2019-05-18T15:44:08.140Z,22.30
2019-05-18T15:46:48.849Z,22.30
2019-05-18T15:49:29.163Z,22.10
2019-05-18T15:52:02.511Z,22.10
2019-05-18T15:54:36.296Z,22.00
2019-05-18T15:57:11.508Z,22.00
2019-05-18T15:59:46.205Z,22.00
2019-05-18T16:02:17.977Z,22.00
2019-05-18T16:04:49.052Z,21.90
2019-05-18T16:07:21.953Z,21.80
2019-05-18T16:09:56.100Z,21.70
2019-05-18T16:12:38.645Z,21.50
2019-05-18T16:15:09.479Z,21.30
2019-05-18T16:17:43.968Z,21.20
2019-05-18T16:20:15.088Z,21.10
2019-05-18T16:22:48.497Z,21.00
2019-05-18T16:25:22.764Z,20.90
2019-05-18T16:28:04.542Z,20.80
2019-05-18T16:30:35.364Z,20.70
2019-05-18T16:33:11.532Z,20.60
2019-05-18T16:36:03.311Z,20.50
2019-05-18T16:38:39.128Z,20.40
2019-05-18T16:41:18.359Z,20.30
2019-05-18T16:43:53.199Z,20.30
2019-05-18T16:46:25.331Z,20.30
2019-05-18T16:48:56.195Z,20.10
2019-05-18T16:51:28.495Z,19.80
2019-05-18T16:54:00.708Z,19.60
2019-05-18T16:56:43.044Z,19.40
2019-05-18T16:59:35.447Z,19.20
2019-05-18T17:02:30.780Z,19.00
2019-05-18T17:04:52.075Z,18.30
2019-05-18T17:07:24.059Z,17.70
2019-05-18T17:10:15.807Z,17.40
2019-05-18T17:12:54.627Z,17.20
2019-05-18T17:18:29.457Z,16.80
2019-05-18T17:21:17.651Z,16.70
2019-05-18T17:23:48.675Z,16.70
2019-05-18T17:26:26.358Z,16.70
2019-05-18T17:29:02.365Z,16.70
2019-05-18T17:31:38.384Z,16.70
2019-05-18T17:34:13.229Z,16.70
2019-05-18T17:36:44.267Z,16.70
2019-05-18T17:39:34.390Z,16.70
2019-05-18T17:42:32.631Z,16.60
2019-05-18T17:45:05.661Z,16.60
2019-05-18T17:47:48.908Z,16.40
2019-05-18T17:50:19.992Z,16.30
2019-05-18T17:52:59.106Z,16.10
2019-05-18T17:55:45.170Z,15.90
2019-05-18T17:58:22.475Z,15.90
2019-05-18T18:01:05.805Z,16.00
2019-05-18T18:03:39.605Z,16.00
2019-05-18T18:06:32.376Z,16.00
2019-05-18T18:09:07.825Z,15.90
2019-05-18T18:11:49.839Z,15.90
2019-05-18T18:14:23.433Z,15.80
2019-05-18T18:17:26.715Z,15.80
2019-05-18T18:20:01.949Z,15.80
2019-05-18T18:22:42.962Z,15.80
2019-05-18T18:25:21.569Z,15.80
2019-05-18T18:27:57.133Z,15.80
2019-05-18T18:30:27.901Z,15.80
2019-05-18T18:33:02.568Z,15.90
2019-05-18T18:35:39.708Z,15.90
2019-05-18T18:38:12.408Z,15.90
2019-05-18T18:40:49.193Z,15.90
2019-05-18T18:43:21.412Z,15.90
2019-05-18T18:45:53.082Z,15.90
2019-05-18T18:48:29.115Z,15.80
2019-05-18T18:51:02.203Z,15.70
2019-05-18T18:53:35.555Z,15.60
2019-05-18T18:56:26.792Z,15.50
2019-05-18T18:59:05.309Z,15.40
2019-05-18T19:01:41.269Z,15.30
2019-05-18T19:04:14.183Z,15.20
2019-05-18T19:06:49.260Z,15.20
2019-05-18T19:09:22.872Z,15.20
2019-05-18T19:12:04.939Z,15.20
2019-05-18T19:14:36.553Z,15.10
2019-05-18T19:17:09.792Z,15.10
2019-05-18T19:19:43.418Z,15.00
2019-05-18T19:22:16.211Z,14.90
2019-05-18T19:24:47.963Z,14.80
2019-05-18T19:27:18.730Z,14.80
2019-05-18T19:29:49.751Z,14.80
2019-05-18T19:32:20.267Z,14.80
2019-05-18T19:34:50.663Z,14.70
2019-05-18T19:37:21.408Z,14.70
2019-05-18T19:40:00.581Z,14.70
2019-05-18T19:42:34.673Z,14.70
2019-05-18T19:45:05.204Z,14.70
2019-05-18T19:47:37.950Z,14.70
2019-05-18T19:50:13.848Z,14.60
2019-05-18T19:52:55.455Z,14.60
2019-05-18T19:55:26.268Z,14.60
2019-05-18T19:58:08.826Z,14.60
2019-05-18T20:00:42.840Z,14.70
2019-05-18T20:03:23.299Z,14.60
2019-05-18T20:05:56.937Z,14.60
2019-05-18T20:08:37.851Z,14.60
2019-05-18T20:11:13.008Z,14.60
2019-05-18T20:13:43.920Z,14.60
2019-05-18T20:16:16.070Z,14.60
2019-05-18T20:18:50.029Z,14.70
2019-05-18T20:21:27.359Z,14.70
2019-05-18T20:23:59.599Z,14.70
2019-05-18T20:26:30.011Z,14.70
2019-05-18T20:29:00.961Z,14.70
2019-05-18T20:31:32.887Z,14.70
2019-05-18T20:34:03.493Z,14.70
2019-05-18T20:36:40.567Z,14.70
2019-05-18T20:39:16.878Z,14.70
2019-05-18T20:41:51.105Z,14.60
2019-05-18T20:44:21.856Z,14.60
2019-05-18T20:46:54.419Z,14.60
2019-05-18T20:49:29.801Z,14.60
2019-05-18T20:52:01.565Z,14.60
2019-05-18T20:54:32.824Z,14.60
2019-05-18T20:57:06.848Z,14.60
2019-05-18T20:59:37.238Z,14.60
2019-05-18T21:02:11.395Z,14.60
2019-05-18T21:04:45.254Z,14.60
2019-05-18T21:07:23.266Z,14.60
2019-05-18T21:09:55.748Z,14.50
2019-05-18T21:12:37.525Z,14.40
2019-05-18T21:15:20.130Z,14.40
2019-05-18T21:17:52.196Z,14.30
2019-05-18T21:20:27.468Z,14.30
2019-05-18T21:23:00.786Z,14.30
2019-05-18T21:25:36.089Z,14.30
2019-05-18T21:28:13.815Z,14.30
2019-05-18T21:30:49.557Z,14.30
2019-05-18T21:33:24.387Z,14.20
2019-05-18T21:36:00.208Z,14.20
2019-05-18T21:38:31.325Z,14.10
2019-05-18T21:41:05.830Z,14.10
2019-05-18T21:43:49.478Z,14.00
2019-05-18T21:46:25.038Z,14.00
2019-05-18T21:48:56.762Z,14.00
2019-05-18T21:51:48.770Z,13.90
2019-05-18T21:54:30.597Z,13.80
2019-05-18T21:57:10.306Z,13.80
2019-05-18T21:59:56.378Z,13.80
2019-05-18T22:02:34.048Z,13.70
2019-05-18T22:05:07.815Z,13.70
2019-05-18T22:07:41.308Z,13.70
2019-05-18T22:10:25.648Z,13.70
2019-05-18T22:12:53.158Z,13.60
2019-05-18T22:15:27.782Z,13.50
2019-05-18T22:18:06.367Z,13.50
2019-05-18T22:20:43.227Z,13.50
2019-05-18T22:23:15.448Z,13.40
2019-05-18T22:25:48.197Z,13.50
2019-05-18T22:28:22.153Z,13.50
2019-05-18T22:30:54.476Z,13.50
2019-05-18T22:33:31.650Z,13.40
2019-05-18T22:36:13.708Z,13.40
2019-05-18T22:38:45.688Z,13.40
2019-05-18T22:41:16.326Z,13.40
2019-05-18T22:43:50.721Z,13.40
2019-05-18T22:46:21.972Z,13.40
2019-05-18T22:48:54.541Z,13.40
2019-05-18T22:51:27.587Z,13.40
2019-05-18T22:53:59.448Z,13.30
2019-05-18T22:56:33.133Z,13.30
2019-05-18T22:59:03.657Z,13.20
2019-05-18T23:01:35.075Z,13.30
2019-05-18T23:04:05.552Z,13.20
2019-05-18T23:06:50.430Z,13.20
2019-05-18T23:09:13.685Z,13.20
2019-05-18T23:11:44.420Z,13.10
2019-05-18T23:14:16.102Z,13.10
2019-05-18T23:16:46.972Z,13.00
2019-05-18T23:19:21.532Z,13.00
2019-05-18T23:21:56.172Z,13.00
2019-05-18T23:24:30.919Z,12.90
2019-05-18T23:27:01.584Z,12.90
2019-05-18T23:29:33.849Z,12.90
2019-05-18T23:32:05.115Z,12.90
2019-05-18T23:34:38.485Z,12.80
2019-05-18T23:37:09.424Z,12.80
2019-05-18T23:39:40.991Z,12.80
2019-05-18T23:42:14.836Z,12.70
2019-05-18T23:44:47.857Z,12.70
2019-05-18T23:47:18.786Z,12.70
2019-05-18T23:49:49.387Z,12.70
2019-05-18T23:52:20.306Z,12.70
2019-05-18T23:54:52.217Z,12.70
2019-05-18T23:57:23.255Z,12.60
2019-05-18T23:59:54.744Z,12.60
